Time;durP1;ratioP1;P1;durP2;ratioP2;P2;SDS_P1;SDS_P2;PMS_P1;PMS_P2;Temp;Humidity;BMP_temperature;BMP_pressure;BME280_temperature;BME280_humidity;BME280_pressure;Samples;Min_cycle;Max_cycle;Signal;HPM_P1;HPM_P2
2022/06/01 00:00:23;;;;;;;5.10;4.40;;;;;;;11.66;100.00;98097.81;2575623;28;20054;-84
2022/06/01 00:01:51;;;;;;;5.05;4.03;;;;;;;11.67;100.00;98093.44;2575658;28;20149;-83
2022/06/01 00:03:07;;;;;;;4.63;3.65;;;;;;;11.63;100.00;98095.31;2575708;28;20866;-85
2022/06/01 00:04:23;;;;;;;3.83;3.42;;;;;;;11.50;100.00;98089.66;2575584;28;20114;-82
2022/06/01 00:05:39;;;;;;;4.30;3.90;;;;;;;11.43;100.00;98088.19;2574930;28;20050;-84
2022/06/01 00:06:56;;;;;;;4.80;4.40;;;;;;;11.36;100.00;98090.19;2575637;28;20481;-83
2022/06/01 00:08:12;;;;;;;5.82;4.05;;;;;;;11.31;100.00;98097.34;2575837;28;20081;-87
2022/06/01 00:09:27;;;;;;;4.78;4.03;;;;;;;11.34;100.00;98096.38;2575911;28;20054;-85
2022/06/01 00:10:43;;;;;;;4.40;3.95;;;;;;;11.27;100.00;98094.00;2575868;28;20426;-84
2022/06/01 00:11:59;;;;;;;4.03;3.63;;;;;;;11.18;100.00;98094.31;2576039;28;20117;-85
2022/06/01 00:13:14;;;;;;;4.78;4.20;;;;;;;11.13;100.00;98094.47;2575643;28;20110;-83
2022/06/01 00:14:30;;;;;;;5.63;4.20;;;;;;;11.12;100.00;98099.78;2575618;28;20505;-84
2022/06/01 00:15:47;;;;;;;5.22;3.90;;;;;;;11.12;100.00;98094.56;2575685;28;20046;-83
2022/06/01 00:17:03;;;;;;;4.47;4.07;;;;;;;11.12;100.00;98100.63;2575324;28;20543;-83
2022/06/01 00:18:18;;;;;;;6.20;4.18;;;;;;;11.11;100.00;98100.72;2575701;28;20050;-83
2022/06/01 00:19:34;;;;;;;6.25;4.43;;;;;;;11.03;100.00;98103.56;2575408;28;20045;-82
2022/06/01 00:20:51;;;;;;;7.93;5.05;;;;;;;10.95;100.00;98105.63;2575729;28;20176;-83
2022/06/01 00:22:12;;;;;;;7.28;4.47;;;;;;;10.87;100.00;98100.66;2575682;28;20061;-84
2022/06/01 00:23:28;;;;;;;5.03;4.53;;;;;;;10.87;100.00;98106.72;2575844;28;20622;-83
2022/06/01 00:24:46;;;;;;;4.72;4.13;;;;;;;10.78;100.00;98107.06;2575627;28;21022;-85
2022/06/01 00:26:02;;;;;;;6.53;3.83;;;;;;;10.59;100.00;98106.81;2575589;28;20058;-85
2022/06/01 00:27:18;;;;;;;4.60;3.67;;;;;;;10.53;100.00;98112.25;2575404;28;20621;-82
2022/06/01 00:28:34;;;;;;;5.47;3.55;;;;;;;10.54;100.00;98112.22;2575437;28;20196;-82
2022/06/01 00:29:51;;;;;;;5.47;4.00;;;;;;;10.44;100.00;98111.66;2575649;28;20106;-82
2022/06/01 00:31:07;;;;;;;4.82;4.00;;;;;;;10.56;100.00;98113.00;2575906;28;20116;-85
2022/06/01 00:32:22;;;;;;;9.27;3.58;;;;;;;10.52;100.00;98107.94;2575485;28;20046;-84
2022/06/01 00:33:38;;;;;;;5.00;3.80;;;;;;;10.50;100.00;98102.75;2575511;28;20469;-84
2022/06/01 00:34:53;;;;;;;7.68;4.25;;;;;;;10.43;100.00;98104.72;2575901;28;20054;-83
2022/06/01 00:36:10;;;;;;;7.82;4.07;;;;;;;10.48;100.00;98099.34;2577711;28;20492;-82
2022/06/01 00:37:26;;;;;;;4.95;4.18;;;;;;;10.39;100.00;98107.44;2577864;28;21012;-83
2022/06/01 00:38:42;;;;;;;4.85;4.20;;;;;;;10.46;100.00;98111.59;2577379;28;20062;-84
2022/06/01 00:39:57;;;;;;;4.72;3.97;;;;;;;10.47;100.00;98110.69;2577511;28;20050;-85
2022/06/01 00:41:13;;;;;;;4.72;4.00;;;;;;;10.48;100.00;98112.44;2577793;28;20074;-84
2022/06/01 00:42:31;;;;;;;4.82;3.85;;;;;;;10.48;100.00;98107.19;2577499;28;20453;-85
2022/06/01 00:43:46;;;;;;;5.78;4.30;;;;;;;10.42;100.00;98104.75;2577620;28;20441;-82
2022/06/01 00:45:03;;;;;;;6.28;4.18;;;;;;;10.43;100.00;98114.31;2577399;28;20082;-83
2022/06/01 00:46:19;;;;;;;6.10;4.43;;;;;;;10.45;100.00;98108.16;2577082;28;20097;-87
2022/06/01 00:47:34;;;;;;;5.97;3.75;;;;;;;10.41;100.00;98110.91;2577504;28;20493;-83
2022/06/01 00:48:54;;;;;;;4.40;3.90;;;;;;;10.44;100.00;98111.66;2577781;28;20054;-83
2022/06/01 00:50:26;;;;;;;5.50;4.57;;;;;;;10.39;100.00;98112.69;2577729;28;20081;-84
2022/06/01 00:51:43;;;;;;;5.05;3.80;;;;;;;10.35;100.00;98104.06;2577251;28;20042;-83
2022/06/01 00:53:10;;;;;;;5.50;4.03;;;;;;;10.39;100.00;98113.53;2577401;28;20157;-83
2022/06/01 00:54:26;;;;;;;4.40;3.95;;;;;;;10.35;100.00;98113.69;2577757;28;20461;-83
2022/06/01 00:55:46;;;;;;;5.07;4.22;;;;;;;10.38;100.00;98118.84;2577484;28;20085;-83
2022/06/01 00:57:09;;;;;;;5.13;4.10;;;;;;;10.32;100.00;98119.88;2577484;28;20065;-84
2022/06/01 00:58:30;;;;;;;;;;;;;;;10.33;100.00;98113.75;2578256;28;20053;-84
2022/06/01 00:59:46;;;;;;;6.78;4.05;;;;;;;10.34;100.00;98112.84;2577694;28;19926;-84
2022/06/01 01:01:04;;;;;;;4.97;3.85;;;;;;;10.37;100.00;98117.13;2577437;28;20688;-83
2022/06/01 01:02:20;;;;;;;4.43;3.90;;;;;;;10.27;100.00;98127.03;2577875;28;20081;-83
2022/06/01 01:03:39;;;;;;;7.95;4.03;;;;;;;10.14;100.00;98131.78;2577541;28;20428;-84
2022/06/01 01:04:55;;;;;;;4.78;3.75;;;;;;;10.07;100.00;98135.50;2577386;28;20092;-84
2022/06/01 01:06:17;;;;;;;6.13;4.10;;;;;;;10.05;100.00;98138.16;2577085;28;20535;-84
2022/06/01 01:07:34;;;;;;;;;;;;;;;10.00;100.00;98140.91;2578190;28;20829;-83
2022/06/01 01:08:51;;;;;;;5.53;4.25;;;;;;;9.99;100.00;98133.97;2577674;28;19932;-83
2022/06/01 01:10:09;;;;;;;30.90;4.78;;;;;;;10.00;100.00;98140.06;2566438;28;20082;-84
2022/06/01 01:11:35;;;;;;;14.70;4.75;;;;;;;9.99;100.00;98141.81;2571336;28;20050;-87
2022/06/01 01:13:03;;;;;;;29.05;5.03;;;;;;;10.03;100.00;98146.03;2577319;28;20580;-84
2022/06/01 01:14:23;;;;;;;7.00;5.05;;;;;;;10.03;100.00;98138.19;2577368;28;20054;-84
2022/06/01 01:15:43;;;;;;;21.05;4.72;;;;;;;10.06;100.00;98147.72;2577438;28;20057;-85
2022/06/01 01:17:02;;;;;;;6.32;4.32;;;;;;;10.04;100.00;98149.53;2577351;28;20050;-84
2022/06/01 01:18:22;;;;;;;10.07;4.90;;;;;;;10.00;100.00;98145.28;2577459;28;20054;-84
2022/06/01 01:19:49;;;;;;;20.40;5.20;;;;;;;10.00;100.00;98142.69;2577267;28;20055;-83
2022/06/01 01:21:18;;;;;;;16.85;5.10;;;;;;;10.06;100.00;98146.84;2577404;28;20158;-82
2022/06/01 01:22:47;;;;;;;14.32;5.07;;;;;;;10.11;100.00;98148.41;2576926;28;20050;-85
2022/06/01 01:24:13;;;;;;;31.50;5.55;;;;;;;10.09;100.00;98152.84;2577471;28;20050;-84
2022/06/01 01:25:32;;;;;;;16.38;5.75;;;;;;;10.09;100.00;98147.63;2577545;28;20465;-84
2022/06/01 01:26:50;;;;;;;9.20;4.72;;;;;;;10.11;100.00;98150.19;2577338;28;20054;-85
2022/06/01 01:28:07;;;;;;;7.20;4.90;;;;;;;10.11;100.00;98150.19;2576959;28;20528;-83
2022/06/01 01:29:39;;;;;;;6.05;4.68;;;;;;;10.05;100.00;98146.00;2576628;28;20552;-83
2022/06/01 01:31:20;;;;;;;6.47;4.32;;;;;;;10.03;100.00;98143.41;2575541;28;20765;-83
2022/06/01 01:32:36;;;;;;;4.72;4.10;;;;;;;9.95;100.00;98144.56;2577161;28;20452;-83
2022/06/01 01:33:53;;;;;;;6.70;4.18;;;;;;;9.90;100.00;98147.31;2566493;28;20051;-83
2022/06/01 01:35:09;;;;;;;8.07;4.03;;;;;;;9.80;100.00;98138.88;2571190;28;20062;-83
2022/06/01 01:36:31;;;;;;;14.15;4.38;;;;;;;9.74;100.00;98142.53;2576431;28;20061;-85
2022/06/01 01:37:50;;;;;;;7.82;4.15;;;;;;;9.66;100.00;98141.06;2577391;28;20058;-87
2022/06/01 01:39:12;;;;;;;6.88;4.25;;;;;;;9.60;100.00;98134.25;2577244;28;20051;-85
2022/06/01 01:40:27;;;;;;;5.65;4.63;;;;;;;9.61;100.00;98128.97;2577732;28;20081;-85
2022/06/01 01:41:49;;;;;;;9.25;4.57;;;;;;;9.50;100.00;98128.44;2577846;28;20096;-84
2022/06/01 01:43:07;;;;;;;6.22;4.18;;;;;;;9.37;100.00;98119.22;2577409;28;20509;-86
2022/06/01 01:44:25;;;;;;;7.35;4.30;;;;;;;9.33;100.00;98124.56;2577868;28;20046;-85
2022/06/01 01:45:41;;;;;;;5.13;4.30;;;;;;;9.30;100.00;98122.03;2577315;28;20097;-88
2022/06/01 01:46:58;;;;;;;5.72;4.75;;;;;;;9.30;100.00;98116.81;2577511;28;20061;-85
2022/06/01 01:48:14;;;;;;;5.18;4.40;;;;;;;9.38;100.00;98120.94;2577901;28;20828;-86
2022/06/01 01:49:33;;;;;;;5.05;4.55;;;;;;;9.43;100.00;98122.53;2578026;28;20073;-86
2022/06/01 01:50:49;;;;;;;4.45;4.00;;;;;;;9.51;100.00;98127.53;2577763;28;20684;-85
2022/06/01 01:52:16;;;;;;;4.80;3.92;;;;;;;9.53;100.00;98132.72;2577494;28;20046;-85
2022/06/01 01:53:32;;;;;;;4.70;4.13;;;;;;;9.51;100.00;98134.53;2578338;28;20481;-86
2022/06/01 01:55:19;;;;;;;4.68;4.22;;;;;;;9.53;100.00;98143.19;2579093;28;20506;-88
2022/06/01 01:56:40;;;;;;;4.28;3.88;;;;;;;9.59;100.00;98143.00;2548601;28;20063;-84
2022/06/01 01:58:05;;;;;;;6.25;4.38;;;;;;;9.63;100.00;98142.00;2584106;28;20080;-86
2022/06/01 01:59:48;;;;;;;28.75;4.82;;;;;;;9.63;100.00;98142.00;2584319;28;20046;-84
2022/06/01 02:01:14;;;;;;;15.50;3.97;;;;;;;9.61;100.00;98142.06;2584927;28;20078;-85
2022/06/01 02:02:42;;;;;;;31.98;4.70;;;;;;;9.54;100.00;98145.72;2579223;28;20054;-84
2022/06/01 02:04:05;;;;;;;20.23;4.25;;;;;;;9.46;100.00;98147.72;2577315;28;20058;-86
2022/06/01 02:06:06;;;;;;;9.90;4.30;;;;;;;9.45;100.00;98152.06;2577220;28;20549;-84
2022/06/01 02:07:33;;;;;;;21.85;4.50;;;;;;;9.27;100.00;98150.00;2577159;28;20050;-85
2022/06/01 02:08:57;;;;;;;18.17;3.88;;;;;;;9.29;100.00;98158.63;2576984;28;20093;-86
2022/06/01 02:13:35;;;;;;;8.20;3.92;;;;;;;9.13;100.00;98152.97;2576737;28;20054;-84
2022/06/01 02:14:55;;;;;;;10.70;4.70;;;;;;;9.17;100.00;98142.38;2576710;28;20640;-87
2022/06/01 02:16:11;;;;;;;5.00;4.50;;;;;;;9.14;100.00;98152.06;2576542;28;20353;-86
2022/06/01 02:17:38;;;;;;;57.55;6.10;;;;;;;9.15;100.00;98148.53;2576874;28;20050;-85
2022/06/01 02:18:58;;;;;;;7.25;4.45;;;;;;;9.17;100.00;98154.59;2576811;28;20058;-85
2022/06/01 02:20:23;;;;;;;16.02;4.63;;;;;;;9.21;100.00;98148.41;2572201;28;21076;-84
2022/06/01 02:21:39;;;;;;;30.65;5.40;;;;;;;9.25;100.00;98154.41;2573850;28;20050;-85
2022/06/01 02:22:55;;;;;;;14.95;4.30;;;;;;;9.29;100.00;98158.63;2576762;28;20050;-84
2022/06/01 02:24:10;;;;;;;155.48;8.32;;;;;;;9.31;100.00;98162.94;2576676;28;20054;-85
2022/06/01 02:25:29;;;;;;;14.68;4.80;;;;;;;9.34;100.00;98156.75;2576758;28;20054;-85
2022/06/01 02:26:46;;;;;;;15.65;5.20;;;;;;;9.38;100.00;98166.22;2570867;28;20150;-86
2022/06/01 02:28:02;;;;;;;135.40;7.70;;;;;;;9.38;100.00;98163.63;2573077;28;20136;-85
2022/06/01 02:29:21;;;;;;;140.90;8.15;;;;;;;9.37;100.00;98167.13;2576593;28;20496;-84
2022/06/01 02:30:40;;;;;;;118.43;7.10;;;;;;;9.25;100.00;98178.75;2576643;28;20069;-85
2022/06/01 02:31:57;;;;;;;9.32;4.30;;;;;;;9.22;100.00;98164.91;2576734;28;20105;-85
2022/06/01 02:33:17;;;;;;;94.50;7.13;;;;;;;9.22;100.00;98180.59;2576765;28;20053;-84
2022/06/01 02:34:35;;;;;;;39.13;5.03;;;;;;;9.13;100.00;98177.34;2576803;28;20892;-85
2022/06/01 02:35:53;;;;;;;145.20;8.50;;;;;;;9.17;100.00;98184.19;2576303;28;20057;-85
2022/06/01 02:37:10;;;;;;;61.75;6.30;;;;;;;9.19;100.00;98177.16;2576552;28;20488;-85
2022/06/01 02:38:49;;;;;;;91.00;6.28;;;;;;;9.27;100.00;98186.56;2576452;28;20047;-85
2022/06/01 02:40:09;;;;;;;25.00;4.38;;;;;;;9.29;100.00;98190.84;2576252;28;20508;-86
2022/06/01 02:42:59;;;;;;;5.68;4.60;;;;;;;9.51;100.00;98187.63;2576273;28;20477;-85
2022/06/01 02:44:16;;;;;;;21.20;4.32;;;;;;;9.49;100.00;98186.84;2576259;28;20047;-84
2022/06/01 02:45:32;;;;;;;13.02;4.25;;;;;;;9.52;100.00;98183.28;2576471;28;20549;-84
2022/06/01 02:46:48;;;;;;;8.05;4.85;;;;;;;9.51;100.00;98178.97;2576368;28;20414;-84
2022/06/01 02:48:04;;;;;;;8.25;4.47;;;;;;;9.56;100.00;98174.44;2576475;28;20046;-84
2022/06/01 02:49:20;;;;;;;7.20;4.43;;;;;;;9.51;100.00;98176.34;2576504;28;20053;-84
2022/06/01 02:50:36;;;;;;;4.85;4.05;;;;;;;9.38;100.00;98179.28;2576298;28;20065;-86
2022/06/01 02:51:52;;;;;;;14.18;4.50;;;;;;;9.39;100.00;98175.78;2576423;28;20089;-84
2022/06/01 02:53:09;;;;;;;7.78;4.68;;;;;;;9.59;100.00;98180.44;2576359;28;20078;-85
2022/06/01 02:54:24;;;;;;;36.33;5.18;;;;;;;9.62;100.00;98187.34;2576338;28;20049;-84
2022/06/01 02:55:40;;;;;;;11.65;4.75;;;;;;;9.59;100.00;98190.91;2576335;28;20046;-85
2022/06/01 02:56:55;;;;;;;18.98;5.05;;;;;;;9.65;100.00;98183.78;2576179;28;20056;-89
2022/06/01 02:58:11;;;;;;;66.95;5.90;;;;;;;9.55;100.00;98178.81;2575686;28;20051;-85
2022/06/01 02:59:27;;;;;;;7.78;4.38;;;;;;;9.62;100.00;98176.88;2576365;28;20057;-85
2022/06/01 03:00:42;;;;;;;25.27;5.13;;;;;;;9.60;100.00;98182.16;2576063;28;20109;-84
2022/06/01 03:01:59;;;;;;;25.13;4.90;;;;;;;9.60;100.00;98181.28;2576185;28;20057;-85
2022/06/01 03:03:14;;;;;;;6.28;4.70;;;;;;;9.58;100.00;98173.50;2575981;28;20054;-84
2022/06/01 03:04:30;;;;;;;6.20;4.97;;;;;;;9.57;100.00;98165.72;2576446;28;20050;-83
2022/06/01 03:05:45;;;;;;;5.03;4.35;;;;;;;9.51;100.00;98163.28;2575793;28;20120;-84
2022/06/01 03:07:02;;;;;;;4.22;3.83;;;;;;;9.49;100.00;98158.09;2576256;28;20050;-84
2022/06/01 03:08:18;;;;;;;5.55;4.07;;;;;;;9.40;100.00;98151.38;2576144;28;20061;-85
2022/06/01 03:09:34;;;;;;;4.25;3.50;;;;;;;9.33;100.00;98155.03;2576263;28;20145;-84
2022/06/01 03:10:50;;;;;;;4.45;3.85;;;;;;;9.30;100.00;98157.72;2576163;28;20054;-85
2022/06/01 03:12:07;;;;;;;4.68;4.00;;;;;;;9.25;100.00;98157.00;2575942;28;20116;-86
2022/06/01 03:13:23;;;;;;;4.40;3.47;;;;;;;9.16;100.00;98158.13;2576188;28;20527;-85
2022/06/01 03:14:38;;;;;;;5.80;3.50;;;;;;;9.12;100.00;98162.56;2576335;28;20050;-84
2022/06/01 03:15:54;;;;;;;5.28;3.60;;;;;;;9.06;100.00;98157.47;2576192;28;20937;-84
2022/06/01 03:17:10;;;;;;;4.45;3.75;;;;;;;9.14;100.00;98163.38;2575547;28;20054;-84
2022/06/01 03:18:26;;;;;;;4.70;3.90;;;;;;;9.19;100.00;98158.03;2575856;28;20659;-85
2022/06/01 03:19:41;;;;;;;5.07;4.03;;;;;;;9.25;100.00;98152.63;2575825;28;20481;-84
2022/06/01 03:20:58;;;;;;;6.88;3.97;;;;;;;9.32;100.00;98155.94;2576104;28;20050;-85
2022/06/01 03:22:14;;;;;;;4.97;4.05;;;;;;;9.36;100.00;98157.59;2575601;28;20055;-88
2022/06/01 03:23:30;;;;;;;10.48;4.80;;;;;;;9.41;100.00;98162.66;2576021;28;20719;-84
2022/06/01 03:24:45;;;;;;;5.13;4.25;;;;;;;9.36;100.00;98154.09;2576222;28;20357;-84
2022/06/01 03:26:01;;;;;;;9.25;3.92;;;;;;;9.39;100.00;98165.34;2565158;28;20511;-83
2022/06/01 03:27:17;;;;;;;9.75;4.88;;;;;;;9.48;100.00;98161.59;2568825;28;20128;-83
2022/06/01 03:28:33;;;;;;;5.90;4.68;;;;;;;9.54;100.00;98153.56;2576014;28;20999;-89
2022/06/01 03:29:48;;;;;;;7.20;4.72;;;;;;;9.59;100.00;98153.44;2575870;28;20077;-83
2022/06/01 03:31:06;;;;;;;6.88;4.68;;;;;;;9.62;100.00;98145.50;2576315;28;20481;-84
2022/06/01 03:32:21;;;;;;;5.47;4.55;;;;;;;9.60;100.00;98148.19;2576027;28;20061;-84
2022/06/01 03:33:37;;;;;;;6.80;5.25;;;;;;;9.64;100.00;98141.13;2576100;28;20057;-89
2022/06/01 03:34:52;;;;;;;6.20;5.13;;;;;;;9.67;100.00;98155.84;2575945;28;20094;-83
2022/06/01 03:36:09;;;;;;;9.85;5.40;;;;;;;9.70;100.00;98156.59;2576243;28;20054;-84
2022/06/01 03:37:25;;;;;;;5.57;4.97;;;;;;;9.73;100.00;98155.69;2575890;28;20077;-84
2022/06/01 03:38:40;;;;;;;8.80;5.80;;;;;;;9.78;100.00;98168.59;2576164;28;20408;-84
2022/06/01 03:39:56;;;;;;;6.63;5.45;;;;;;;9.83;100.00;98171.94;2576107;28;20050;-84
2022/06/01 03:41:12;;;;;;;7.28;5.10;;;;;;;9.86;100.00;98170.09;2575978;28;20218;-83
2022/06/01 03:42:28;;;;;;;6.47;5.30;;;;;;;9.92;100.00;98173.44;2575705;28;20072;-84
2022/06/01 03:46:52;;;;;;;5.90;4.15;;;;;;;9.98;100.00;98178.47;2575663;28;20308;-83
2022/06/01 03:48:08;;;;;;;5.53;4.00;;;;;;;10.03;100.00;98193.13;2575667;28;20065;-82
2022/06/01 03:49:24;;;;;;;5.68;4.20;;;;;;;10.05;100.00;98177.38;2575675;28;20539;-84
2022/06/01 03:50:40;;;;;;;5.15;4.35;;;;;;;10.10;100.00;98190.34;2565395;28;20054;-83
2022/06/01 03:51:56;;;;;;;5.43;4.20;;;;;;;10.15;100.00;98178.84;2569279;28;20049;-86
2022/06/01 03:53:13;;;;;;;7.45;4.22;;;;;;;10.22;100.00;98178.63;2576154;28;20105;-83
2022/06/01 03:54:29;;;;;;;6.28;4.32;;;;;;;10.13;100.00;98164.94;2575753;28;20054;-84
2022/06/01 03:55:46;;;;;;;5.57;4.35;;;;;;;10.00;100.00;98148.75;2576132;28;20400;-83
2022/06/01 03:57:03;;;;;;;7.30;4.70;;;;;;;10.03;100.00;98145.19;2576038;28;20050;-83
2022/06/01 03:58:22;;;;;;;5.30;4.40;;;;;;;10.08;100.00;98130.22;2575945;28;20073;-84
2022/06/01 03:59:37;;;;;;;5.15;4.65;;;;;;;10.10;100.00;98132.78;2576011;28;20046;-83
2022/06/01 04:00:53;;;;;;;6.45;4.70;;;;;;;10.01;100.00;98129.53;2575993;28;20046;-83
2022/06/01 04:02:08;;;;;;;5.15;4.60;;;;;;;9.91;100.00;98142.94;2575845;28;20042;-83
2022/06/01 04:03:24;;;;;;;5.95;4.97;;;;;;;9.89;100.00;98135.13;2575429;28;20925;-85
2022/06/01 04:04:40;;;;;;;5.25;4.78;;;;;;;9.94;100.00;98127.16;2576189;28;20387;-84
2022/06/01 04:05:56;;;;;;;5.75;4.88;;;;;;;9.91;100.00;98133.34;2575685;28;20227;-83
2022/06/01 04:07:11;;;;;;;6.13;4.60;;;;;;;9.92;100.00;98142.03;2575886;28;20074;-83
2022/06/01 04:08:27;;;;;;;5.15;4.35;;;;;;;9.88;100.00;98149.13;2575988;28;20065;-85
2022/06/01 04:09:42;;;;;;;6.32;4.53;;;;;;;9.89;100.00;98158.69;2575936;28;20046;-84
2022/06/01 04:10:58;;;;;;;5.75;5.15;;;;;;;9.94;100.00;98148.94;2575748;28;20047;-84
2022/06/01 04:12:14;;;;;;;5.60;4.40;;;;;;;9.95;100.00;98150.66;2575961;28;20042;-84
2022/06/01 04:13:30;;;;;;;5.22;4.35;;;;;;;9.99;100.00;98154.06;2575914;28;20627;-84
2022/06/01 04:14:45;;;;;;;6.25;4.47;;;;;;;10.01;100.00;98152.25;2575946;28;20050;-84
2022/06/01 04:16:01;;;;;;;4.93;4.43;;;;;;;10.02;100.00;98157.41;2575608;28;20058;-85
2022/06/01 04:17:16;;;;;;;6.05;4.35;;;;;;;10.02;100.00;98157.41;2575731;28;20571;-83
2022/06/01 04:18:32;;;;;;;5.10;3.80;;;;;;;9.96;100.00;98168.06;2576172;28;20437;-84
2022/06/01 04:19:48;;;;;;;5.32;4.32;;;;;;;9.91;100.00;98166.50;2575930;28;20057;-84
2022/06/01 04:21:03;;;;;;;5.78;4.28;;;;;;;10.00;100.00;98174.06;2576184;28;20050;-85
2022/06/01 04:22:19;;;;;;;4.50;4.03;;;;;;;10.03;100.00;98187.03;2576138;28;20100;-84
2022/06/01 04:23:35;;;;;;;4.93;4.30;;;;;;;10.07;100.00;98191.28;2576096;28;20054;-85
2022/06/01 04:24:51;;;;;;;6.40;4.40;;;;;;;10.07;100.00;98195.66;2575956;28;20061;-85
2022/06/01 04:26:06;;;;;;;6.55;4.03;;;;;;;10.04;100.00;98192.22;2575967;28;20141;-84
2022/06/01 04:27:22;;;;;;;5.63;4.28;;;;;;;10.05;100.00;98195.69;2575562;28;20058;-84
2022/06/01 04:28:38;;;;;;;4.40;4.00;;;;;;;9.99;100.00;98203.75;2576122;28;20050;-83
2022/06/01 04:29:54;;;;;;;6.60;4.35;;;;;;;10.00;100.00;98198.44;2576866;28;20057;-94
2022/06/01 04:31:09;;;;;;;4.50;4.10;;;;;;;10.03;100.00;98197.50;2580084;28;20042;-93
2022/06/01 04:32:28;;;;;;;4.85;4.35;;;;;;;10.07;100.00;98195.66;2579187;28;20042;-93
2022/06/01 04:33:44;;;;;;;4.95;4.45;;;;;;;10.03;100.00;98193.13;2578525;28;20477;-82
2022/06/01 04:35:00;;;;;;;6.25;4.15;;;;;;;9.92;100.00;98204.81;2575853;28;20046;-82
2022/06/01 04:36:15;;;;;;;5.20;4.40;;;;;;;9.79;100.00;98202.53;2575606;28;20187;-82
2022/06/01 04:37:31;;;;;;;5.38;4.55;;;;;;;9.75;100.00;98199.16;2576302;28;20182;-83
2022/06/01 04:38:47;;;;;;;5.70;4.75;;;;;;;9.72;100.00;98201.88;2575852;28;20050;-81
2022/06/01 04:40:04;;;;;;;6.35;4.47;;;;;;;9.70;100.00;98205.41;2575525;28;20046;-81
2022/06/01 04:41:19;;;;;;;5.10;4.60;;;;;;;9.75;100.00;98204.38;2576030;28;20376;-83
2022/06/01 04:42:35;;;;;;;5.93;5.03;;;;;;;9.82;100.00;98207.69;2576496;28;20081;-82
2022/06/01 04:43:51;;;;;;;5.72;4.68;;;;;;;9.93;100.00;98202.16;2576392;28;21007;-85
2022/06/01 04:45:09;;;;;;;6.03;4.85;;;;;;;10.01;100.00;98201.94;2581004;28;20042;-84
2022/06/01 04:46:25;;;;;;;5.20;4.70;;;;;;;10.08;100.00;98213.06;2579345;28;20046;-84
2022/06/01 04:47:41;;;;;;;5.47;4.38;;;;;;;10.11;100.00;98205.13;2580643;28;20061;-81
2022/06/01 04:48:56;;;;;;;6.63;5.03;;;;;;;10.13;100.00;98205.94;2580262;28;20042;-80
2022/06/01 04:50:12;;;;;;;4.85;4.35;;;;;;;10.14;100.00;98205.03;2575377;28;20073;-81
2022/06/01 04:51:27;;;;;;;6.95;4.65;;;;;;;10.20;100.00;98204.84;2575256;28;20824;-84
2022/06/01 04:52:43;;;;;;;5.65;4.75;;;;;;;10.30;100.00;98216.72;2575248;28;20619;-84
2022/06/01 04:53:59;;;;;;;6.30;4.75;;;;;;;10.37;100.00;98212.16;2582431;28;20026;-92
2022/06/01 04:55:14;;;;;;;7.20;4.00;;;;;;;10.49;100.00;98216.22;2578521;28;20031;-94
2022/06/01 04:56:30;;;;;;;4.43;3.95;;;;;;;10.56;100.00;98209.88;2573010;28;20110;-91
2022/06/01 04:57:46;;;;;;;6.35;4.30;;;;;;;10.65;100.00;98215.72;2578907;28;20504;-90
2022/06/01 04:59:01;;;;;;;4.75;4.20;;;;;;;10.72;100.00;98217.22;2578679;28;20050;-91
2022/06/01 05:00:17;;;;;;;4.10;3.70;;;;;;;10.78;100.00;98217.03;2578259;28;20047;-90
2022/06/01 05:01:33;;;;;;;7.28;4.00;;;;;;;10.85;100.00;98215.09;2576917;28;20133;-80
2022/06/01 05:02:49;;;;;;;6.30;4.63;;;;;;;10.95;100.00;98223.50;2575231;28;20096;-79
2022/06/01 05:04:05;;;;;;;4.82;4.25;;;;;;;10.99;100.00;98220.72;2575879;28;20053;-79
2022/06/01 05:05:20;;;;;;;4.85;4.30;;;;;;;11.02;100.00;98218.00;2575445;28;20050;-82
2022/06/01 05:06:36;;;;;;;5.50;4.20;;;;;;;11.07;100.00;98224.84;2575141;28;20072;-80
2022/06/01 05:07:51;;;;;;;7.10;4.38;;;;;;;11.13;100.00;98228.09;2574981;28;20552;-79
2022/06/01 05:09:07;;;;;;;5.80;4.82;;;;;;;11.19;100.00;98226.19;2575488;28;20050;-79
2022/06/01 05:10:23;;;;;;;4.85;4.13;;;;;;;11.22;100.00;98226.09;2575656;28;20054;-79
2022/06/01 05:11:39;;;;;;;7.25;4.40;;;;;;;11.23;100.00;98220.78;2575477;28;20050;-79
2022/06/01 05:12:54;;;;;;;4.70;4.30;;;;;;;11.30;100.00;98224.03;2575282;28;20051;-79
2022/06/01 05:14:10;;;;;;;4.88;4.40;;;;;;;11.37;100.00;98229.94;2575079;28;20468;-81
2022/06/01 05:15:26;;;;;;;5.25;4.43;;;;;;;11.38;100.00;98224.66;2575538;28;20046;-79
2022/06/01 05:16:42;;;;;;;6.15;4.47;;;;;;;11.37;100.00;98225.56;2575426;28;20497;-79
2022/06/01 05:17:57;;;;;;;5.85;4.60;;;;;;;11.33;100.00;98223.09;2575542;28;20074;-79
2022/06/01 05:19:13;;;;;;;5.20;4.15;;;;;;;11.29;100.00;98220.59;2574922;28;20042;-80
2022/06/01 05:20:29;;;;;;;9.07;4.43;;;;;;;11.34;100.00;98223.06;2574229;28;20117;-80
2022/06/01 05:21:44;;;;;;;5.60;4.55;;;;;;;11.39;100.00;98220.28;2576248;28;20097;-81
2022/06/01 05:23:00;;;;;;;4.70;4.30;;;;;;;11.47;100.00;98217.38;2576622;28;20050;-80
2022/06/01 05:24:16;;;;;;;6.95;4.68;;;;;;;11.54;100.00;98229.34;2576851;28;20065;-82
2022/06/01 05:25:31;;;;;;;5.20;4.70;;;;;;;11.61;100.00;98217.75;2576877;28;20057;-80
2022/06/01 05:26:47;;;;;;;4.93;4.38;;;;;;;11.67;100.00;98219.28;2576822;28;20061;-79
2022/06/01 05:28:02;;;;;;;6.95;4.35;;;;;;;11.75;100.00;98221.66;2576584;28;20054;-79
2022/06/01 05:29:18;;;;;;;6.63;4.50;;;;;;;11.86;100.00;98219.47;2576940;28;20538;-79
2022/06/01 05:30:34;;;;;;;6.05;4.00;;;;;;;11.83;100.00;98220.44;2576856;28;20456;-78
2022/06/01 05:31:50;;;;;;;4.78;4.28;;;;;;;11.81;100.00;98224.03;2576981;28;20658;-78
2022/06/01 05:33:05;;;;;;;4.85;3.83;;;;;;;11.86;100.00;98222.09;2577240;28;20046;-78
2022/06/01 05:34:21;;;;;;;5.07;4.05;;;;;;;11.85;100.00;98225.63;2577065;28;20046;-80
2022/06/01 05:35:37;;;;;;;4.05;3.65;;;;;;;11.89;100.00;98229.84;2576874;28;20050;-83
2022/06/01 05:36:52;;;;;;;4.88;3.60;;;;;;;11.94;100.00;98222.66;2576860;28;20188;-79
2022/06/01 05:38:08;;;;;;;4.47;3.83;;;;;;;11.99;100.00;98230.38;2576735;28;20109;-78
2022/06/01 05:39:24;;;;;;;5.22;3.90;;;;;;;12.06;100.00;98229.25;2576918;28;20061;-79
2022/06/01 05:40:40;;;;;;;4.63;4.18;;;;;;;12.12;100.00;98225.53;2576640;28;20050;-80
2022/06/01 05:41:55;;;;;;;4.47;3.72;;;;;;;12.17;100.00;98228.88;2577350;28;20054;-90
2022/06/01 05:43:14;;;;;;;3.78;3.47;;;;;;;12.14;100.00;98226.31;2578544;28;20130;-89
2022/06/01 05:44:31;;;;;;;5.90;4.63;;;;;;;12.11;100.00;98226.44;2578562;28;21038;-89
2022/06/01 05:45:46;;;;;;;4.32;3.80;;;;;;;12.13;100.00;98224.63;2578895;28;20391;-89
2022/06/01 05:47:03;;;;;;;5.07;4.35;;;;;;;12.17;100.00;98218.38;2577430;28;20142;-81
2022/06/01 05:48:20;;;;;;;6.00;3.85;;;;;;;12.15;100.00;98215.78;2576696;28;20050;-81
2022/06/01 05:49:36;;;;;;;6.95;3.83;;;;;;;12.31;100.00;98217.81;2576690;28;20050;-81
2022/06/01 05:50:52;;;;;;;4.32;3.92;;;;;;;12.36;100.00;98217.66;2577113;28;20910;-82
2022/06/01 05:52:07;;;;;;;4.15;3.70;;;;;;;12.42;100.00;98220.00;2576573;28;20137;-84
2022/06/01 05:53:23;;;;;;;5.22;3.50;;;;;;;12.38;100.00;98219.31;2576829;28;20109;-83
2022/06/01 05:54:38;;;;;;;4.15;3.40;;;;;;;12.47;100.00;98222.47;2576632;28;20070;-83
2022/06/01 05:55:54;;;;;;;4.03;3.63;;;;;;;12.43;100.00;98222.59;2576841;28;20557;-82
2022/06/01 05:57:10;;;;;;;7.75;3.63;;;;;;;12.44;100.00;98223.47;2576619;28;20116;-84
2022/06/01 05:58:27;;;;;;;4.15;3.13;;;;;;;12.47;100.00;98222.47;2576675;28;20205;-83
2022/06/01 05:59:43;;;;;;;5.32;4.07;;;;;;;12.60;100.00;98228.94;2576564;28;20094;-87
2022/06/01 06:01:05;;;;;;;4.22;3.83;;;;;;;12.59;100.00;98223.78;2577184;28;20054;-83
2022/06/01 06:02:20;;;;;;;5.50;4.13;;;;;;;12.70;100.00;98227.66;2576692;28;20097;-83
2022/06/01 06:03:36;;;;;;;6.00;4.10;;;;;;;12.68;100.00;98226.88;2576947;28;20493;-84
2022/06/01 06:04:52;;;;;;;4.50;3.80;;;;;;;12.74;100.00;98224.91;2566122;28;20066;-83
2022/06/01 06:06:15;;;;;;;4.70;3.53;;;;;;;12.86;100.00;98219.16;2570182;28;20073;-81
2022/06/01 06:07:31;;;;;;;5.97;3.60;;;;;;;12.99;100.00;98219.50;2565960;28;20102;-86
2022/06/01 06:08:48;;;;;;;6.65;3.65;;;;;;;13.10;100.00;98213.81;2570239;28;20394;-83
2022/06/01 06:10:05;;;;;;;4.60;3.85;;;;;;;13.11;99.99;98215.53;2576923;28;20058;-85